sensor_id;sensor_type;location;lat;lon;timestamp;pressure;altitude;pressure_sealevel;temperature;humidity
41334;BME280;27078;46.428;6.256;2024-03-02T00:02:07;95497.03;;;2.78;67.74
41334;BME280;27078;46.428;6.256;2024-03-02T00:04:33;95508.78;;;2.78;68.03
41334;BME280;27078;46.428;6.256;2024-03-02T00:06:58;95499.50;;;2.74;67.73
41334;BME280;27078;46.428;6.256;2024-03-02T00:09:24;95493.78;;;2.71;68.89
41334;BME280;27078;46.428;6.256;2024-03-02T00:11:49;95501.69;;;2.72;68.96
41334;BME280;27078;46.428;6.256;2024-03-02T00:14:16;95497.09;;;2.68;68.86
41334;BME280;27078;46.428;6.256;2024-03-02T00:16:41;95486.38;;;2.66;68.51
41334;BME280;27078;46.428;6.256;2024-03-02T00:19:08;95482.50;;;2.77;69.50
41334;BME280;27078;46.428;6.256;2024-03-02T00:21:34;95478.59;;;2.89;70.61
41334;BME280;27078;46.428;6.256;2024-03-02T00:24:01;95492.00;;;2.90;68.85
41334;BME280;27078;46.428;6.256;2024-03-02T00:26:32;95482.72;;;2.86;68.73
41334;BME280;27078;46.428;6.256;2024-03-02T00:28:59;95486.84;;;2.83;68.79
41334;BME280;27078;46.428;6.256;2024-03-02T00:31:25;95486.06;;;2.78;68.58
41334;BME280;27078;46.428;6.256;2024-03-02T00:33:51;95479.78;;;2.72;68.46
41334;BME280;27078;46.428;6.256;2024-03-02T00:36:22;95486.06;;;2.73;68.88
41334;BME280;27078;46.428;6.256;2024-03-02T00:38:50;95476.22;;;2.72;69.37
41334;BME280;27078;46.428;6.256;2024-03-02T00:41:31;95483.13;;;2.64;69.22
41334;BME280;27078;46.428;6.256;2024-03-02T00:44:06;95483.94;;;2.65;69.26
41334;BME280;27078;46.428;6.256;2024-03-02T00:46:39;95486.94;;;2.63;68.70
41334;BME280;27078;46.428;6.256;2024-03-02T00:49:25;95482.63;;;2.57;69.23
41334;BME280;27078;46.428;6.256;2024-03-02T00:51:54;95482.88;;;2.55;69.17
41334;BME280;27078;46.428;6.256;2024-03-02T00:54:21;95486.44;;;2.56;69.49
41334;BME280;27078;46.428;6.256;2024-03-02T00:56:48;95496.34;;;2.52;69.25
41334;BME280;27078;46.428;6.256;2024-03-02T00:59:14;95490.59;;;2.48;69.95
41334;BME280;27078;46.428;6.256;2024-03-02T01:01:40;95498.25;;;2.51;69.79
41334;BME280;27078;46.428;6.256;2024-03-02T01:04:05;95495.78;;;2.55;70.06
41334;BME280;27078;46.428;6.256;2024-03-02T01:06:30;95498.50;;;2.60;70.80
41334;BME280;27078;46.428;6.256;2024-03-02T01:08:56;95498.19;;;2.67;71.06
41334;BME280;27078;46.428;6.256;2024-03-02T01:11:21;95493.53;;;2.67;70.87
41334;BME280;27078;46.428;6.256;2024-03-02T01:13:47;95494.91;;;2.65;70.89
41334;BME280;27078;46.428;6.256;2024-03-02T01:16:13;95502.63;;;2.57;70.41
41334;BME280;27078;46.428;6.256;2024-03-02T01:18:39;95498.75;;;2.58;71.13
41334;BME280;27078;46.428;6.256;2024-03-02T01:21:04;95492.75;;;2.56;71.96
41334;BME280;27078;46.428;6.256;2024-03-02T01:23:29;95491.09;;;2.60;71.91
41334;BME280;27078;46.428;6.256;2024-03-02T01:25:55;95494.09;;;2.64;71.68
41334;BME280;27078;46.428;6.256;2024-03-02T01:28:21;95496.53;;;2.66;71.70
41334;BME280;27078;46.428;6.256;2024-03-02T01:30:47;95489.44;;;2.65;71.86
41334;BME280;27078;46.428;6.256;2024-03-02T01:33:13;95489.38;;;2.70;72.36
41334;BME280;27078;46.428;6.256;2024-03-02T01:35:38;95484.75;;;2.70;72.29
41334;BME280;27078;46.428;6.256;2024-03-02T01:38:04;95488.25;;;2.76;71.37
41334;BME280;27078;46.428;6.256;2024-03-02T01:40:36;95481.16;;;2.75;71.50
41334;BME280;27078;46.428;6.256;2024-03-02T01:43:03;95471.84;;;2.71;71.17
41334;BME280;27078;46.428;6.256;2024-03-02T01:45:28;95467.47;;;2.70;71.05
41334;BME280;27078;46.428;6.256;2024-03-02T01:47:54;95469.94;;;2.71;70.54
41334;BME280;27078;46.428;6.256;2024-03-02T01:50:32;95469.38;;;2.69;70.68
41334;BME280;27078;46.428;6.256;2024-03-02T01:52:58;95465.00;;;2.68;70.09
41334;BME280;27078;46.428;6.256;2024-03-02T01:55:24;95456.25;;;2.66;70.99
41334;BME280;27078;46.428;6.256;2024-03-02T01:57:50;95450.78;;;2.66;70.64
41334;BME280;27078;46.428;6.256;2024-03-02T02:00:17;95454.63;;;2.65;71.02
41334;BME280;27078;46.428;6.256;2024-03-02T02:02:43;95449.94;;;2.71;70.21
41334;BME280;27078;46.428;6.256;2024-03-02T02:05:09;95451.03;;;2.70;70.48
41334;BME280;27078;46.428;6.256;2024-03-02T02:07:35;95432.94;;;2.69;70.62
41334;BME280;27078;46.428;6.256;2024-03-02T02:10:01;95436.81;;;2.63;71.10
41334;BME280;27078;46.428;6.256;2024-03-02T02:12:26;95433.81;;;2.64;71.34
41334;BME280;27078;46.428;6.256;2024-03-02T02:14:52;95434.31;;;2.71;71.71
41334;BME280;27078;46.428;6.256;2024-03-02T02:17:17;95426.56;;;2.83;71.28
41334;BME280;27078;46.428;6.256;2024-03-02T02:19:43;95431.38;;;2.97;71.07
41334;BME280;27078;46.428;6.256;2024-03-02T02:22:11;95423.38;;;3.05;70.60
41334;BME280;27078;46.428;6.256;2024-03-02T02:24:42;95432.38;;;3.11;69.53
41334;BME280;27078;46.428;6.256;2024-03-02T02:27:08;95425.81;;;3.07;69.12
41334;BME280;27078;46.428;6.256;2024-03-02T02:29:35;95429.97;;;3.04;69.24
41334;BME280;27078;46.428;6.256;2024-03-02T02:32:00;95419.03;;;2.99;69.31
41334;BME280;27078;46.428;6.256;2024-03-02T02:34:26;95426.19;;;2.95;69.06
41334;BME280;27078;46.428;6.256;2024-03-02T02:36:51;95415.31;;;2.85;69.23
41334;BME280;27078;46.428;6.256;2024-03-02T02:39:19;95422.72;;;2.84;69.19
41334;BME280;27078;46.428;6.256;2024-03-02T02:41:45;95420.00;;;2.79;69.30
41334;BME280;27078;46.428;6.256;2024-03-02T02:44:10;95416.75;;;2.77;69.70
41334;BME280;27078;46.428;6.256;2024-03-02T02:46:38;95409.34;;;2.78;69.67
41334;BME280;27078;46.428;6.256;2024-03-02T02:49:04;95406.59;;;2.78;69.41
41334;BME280;27078;46.428;6.256;2024-03-02T02:51:29;95406.28;;;2.84;69.54
41334;BME280;27078;46.428;6.256;2024-03-02T02:53:54;95406.19;;;2.95;69.43
41334;BME280;27078;46.428;6.256;2024-03-02T02:56:20;95401.75;;;2.99;69.65
41334;BME280;27078;46.428;6.256;2024-03-02T02:58:45;95392.09;;;3.06;68.75
41334;BME280;27078;46.428;6.256;2024-03-02T03:01:11;95385.19;;;3.14;68.51
41334;BME280;27078;46.428;6.256;2024-03-02T03:03:36;95386.50;;;3.22;68.87
41334;BME280;27078;46.428;6.256;2024-03-02T03:06:01;95386.16;;;3.28;68.26
41334;BME280;27078;46.428;6.256;2024-03-02T03:08:27;95386.16;;;3.28;68.38
41334;BME280;27078;46.428;6.256;2024-03-02T03:10:53;95395.13;;;3.34;68.16
41334;BME280;27078;46.428;6.256;2024-03-02T03:13:18;95377.28;;;3.37;68.21
41334;BME280;27078;46.428;6.256;2024-03-02T03:15:43;95388.72;;;3.44;68.67
41334;BME280;27078;46.428;6.256;2024-03-02T03:18:09;95384.31;;;3.48;68.37
41334;BME280;27078;46.428;6.256;2024-03-02T03:20:35;95387.53;;;3.55;68.12
41334;BME280;27078;46.428;6.256;2024-03-02T03:23:01;95377.59;;;3.59;68.16
41334;BME280;27078;46.428;6.256;2024-03-02T03:25:26;95374.78;;;3.64;67.93
41334;BME280;27078;46.428;6.256;2024-03-02T03:27:52;95378.88;;;3.67;68.07
41334;BME280;27078;46.428;6.256;2024-03-02T03:30:18;95375.41;;;3.61;68.29
41334;BME280;27078;46.428;6.256;2024-03-02T03:32:43;95384.72;;;3.60;68.32
41334;BME280;27078;46.428;6.256;2024-03-02T03:35:09;95377.06;;;3.57;68.46
41334;BME280;27078;46.428;6.256;2024-03-02T03:37:34;95379.00;;;3.57;68.34
41334;BME280;27078;46.428;6.256;2024-03-02T03:40:00;95377.59;;;3.59;68.20
41334;BME280;27078;46.428;6.256;2024-03-02T03:42:26;95383.38;;;3.58;68.01
41334;BME280;27078;46.428;6.256;2024-03-02T03:44:51;95383.09;;;3.59;68.27
41334;BME280;27078;46.428;6.256;2024-03-02T03:47:17;95381.38;;;3.63;68.02
41334;BME280;27078;46.428;6.256;2024-03-02T03:49:42;95389.03;;;3.66;67.88
41334;BME280;27078;46.428;6.256;2024-03-02T03:52:08;95387.69;;;3.64;67.84
41334;BME280;27078;46.428;6.256;2024-03-02T03:54:33;95392.59;;;3.67;67.86
41334;BME280;27078;46.428;6.256;2024-03-02T03:56:58;95382.50;;;3.62;68.17
41334;BME280;27078;46.428;6.256;2024-03-02T03:59:24;95384.69;;;3.65;68.15
41334;BME280;27078;46.428;6.256;2024-03-02T04:01:49;95383.03;;;3.64;67.73
41334;BME280;27078;46.428;6.256;2024-03-02T04:04:14;95380.28;;;3.64;67.91
41334;BME280;27078;46.428;6.256;2024-03-02T04:06:40;95378.38;;;3.65;68.18
41334;BME280;27078;46.428;6.256;2024-03-02T04:09:05;95375.88;;;3.68;68.06
41334;BME280;27078;46.428;6.256;2024-03-02T04:11:31;95374.97;;;3.73;68.20
41334;BME280;27078;46.428;6.256;2024-03-02T04:13:56;95385.91;;;3.78;67.86
41334;BME280;27078;46.428;6.256;2024-03-02T04:16:21;95381.13;;;3.89;67.22
41334;BME280;27078;46.428;6.256;2024-03-02T04:18:47;95374.16;;;3.96;66.99
41334;BME280;27078;46.428;6.256;2024-03-02T04:21:12;95377.13;;;4.00;66.89
41334;BME280;27078;46.428;6.256;2024-03-02T04:23:38;95371.09;;;3.98;66.94
41334;BME280;27078;46.428;6.256;2024-03-02T04:26:03;95373.38;;;3.91;67.65
41334;BME280;27078;46.428;6.256;2024-03-02T04:28:29;95372.09;;;3.83;67.57
41334;BME280;27078;46.428;6.256;2024-03-02T04:30:54;95361.94;;;3.84;67.80
41334;BME280;27078;46.428;6.256;2024-03-02T04:33:20;95371.88;;;3.79;68.06
41334;BME280;27078;46.428;6.256;2024-03-02T04:35:45;95372.19;;;3.78;68.09
41334;BME280;27078;46.428;6.256;2024-03-02T04:38:11;95372.47;;;3.76;68.12
41334;BME280;27078;46.428;6.256;2024-03-02T04:40:37;95360.47;;;3.67;68.31
41334;BME280;27078;46.428;6.256;2024-03-02T04:43:02;95370.16;;;3.65;68.96
41334;BME280;27078;46.428;6.256;2024-03-02T04:45:29;95376.22;;;3.62;69.15
41334;BME280;27078;46.428;6.256;2024-03-02T04:47:54;95371.78;;;3.66;68.95
41334;BME280;27078;46.428;6.256;2024-03-02T04:50:19;95374.22;;;3.67;69.29
41334;BME280;27078;46.428;6.256;2024-03-02T04:52:45;95372.00;;;3.69;68.76
41334;BME280;27078;46.428;6.256;2024-03-02T04:55:10;95372.47;;;3.76;68.72
41334;BME280;27078;46.428;6.256;2024-03-02T04:57:50;95377.38;;;3.79;68.30
41334;BME280;27078;46.428;6.256;2024-03-02T05:00:16;95384.13;;;3.87;68.73
41334;BME280;27078;46.428;6.256;2024-03-02T05:02:42;95376.44;;;3.89;68.40
41334;BME280;27078;46.428;6.256;2024-03-02T05:05:07;95368.44;;;3.93;68.30
41334;BME280;27078;46.428;6.256;2024-03-02T05:07:33;95366.44;;;3.98;67.78
41334;BME280;27078;46.428;6.256;2024-03-02T05:09:58;95373.84;;;3.98;68.24
41334;BME280;27078;46.428;6.256;2024-03-02T05:12:24;95381.22;;;4.02;67.74
41334;BME280;27078;46.428;6.256;2024-03-02T05:15:07;95380.78;;;4.14;67.04
41334;BME280;27078;46.428;6.256;2024-03-02T05:17:33;95372.47;;;4.19;66.97
41334;BME280;27078;46.428;6.256;2024-03-02T05:19:58;95371.53;;;4.29;67.06
41334;BME280;27078;46.428;6.256;2024-03-02T05:22:24;95368.19;;;4.32;66.52
41334;BME280;27078;46.428;6.256;2024-03-02T05:24:49;95367.56;;;4.35;66.87
41334;BME280;27078;46.428;6.256;2024-03-02T05:27:14;95369.00;;;4.33;66.89
41334;BME280;27078;46.428;6.256;2024-03-02T05:29:40;95367.28;;;4.37;66.12
41334;BME280;27078;46.428;6.256;2024-03-02T05:32:05;95369.75;;;4.38;66.80
41334;BME280;27078;46.428;6.256;2024-03-02T05:34:31;95365.38;;;4.37;66.76
41334;BME280;27078;46.428;6.256;2024-03-02T05:36:58;95371.03;;;4.46;66.39
41334;BME280;27078;46.428;6.256;2024-03-02T05:39:23;95362.03;;;4.40;67.04
41334;BME280;27078;46.428;6.256;2024-03-02T05:41:48;95360.19;;;4.36;66.57
41334;BME280;27078;46.428;6.256;2024-03-02T05:44:14;95357.50;;;4.31;67.51
41334;BME280;27078;46.428;6.256;2024-03-02T05:46:41;95359.69;;;4.29;67.03
41334;BME280;27078;46.428;6.256;2024-03-02T05:49:06;95357.78;;;4.29;66.70
41334;BME280;27078;46.428;6.256;2024-03-02T05:51:33;95364.31;;;4.33;67.32
41334;BME280;27078;46.428;6.256;2024-03-02T05:53:58;95354.84;;;4.25;67.54
41334;BME280;27078;46.428;6.256;2024-03-02T05:56:24;95353.94;;;4.30;67.33
41334;BME280;27078;46.428;6.256;2024-03-02T05:58:49;95347.25;;;4.36;66.98
41334;BME280;27078;46.428;6.256;2024-03-02T06:01:33;95347.16;;;4.41;66.88
41334;BME280;27078;46.428;6.256;2024-03-02T06:03:59;95348.50;;;4.44;67.03
41334;BME280;27078;46.428;6.256;2024-03-02T06:06:24;95342.72;;;4.26;68.10
41334;BME280;27078;46.428;6.256;2024-03-02T06:08:50;95337.38;;;4.16;68.38
41334;BME280;27078;46.428;6.256;2024-03-02T06:11:16;95347.53;;;4.16;68.55
41334;BME280;27078;46.428;6.256;2024-03-02T06:13:42;95341.28;;;4.10;68.90
41334;BME280;27078;46.428;6.256;2024-03-02T06:16:07;95342.41;;;4.09;68.66
41334;BME280;27078;46.428;6.256;2024-03-02T06:18:33;95343.44;;;4.13;68.66
41334;BME280;27078;46.428;6.256;2024-03-02T06:20:59;95343.13;;;4.15;68.72
41334;BME280;27078;46.428;6.256;2024-03-02T06:23:26;95342.28;;;4.19;68.56
41334;BME280;27078;46.428;6.256;2024-03-02T06:25:51;95341.09;;;4.25;68.33
41334;BME280;27078;46.428;6.256;2024-03-02T06:28:17;95338.25;;;4.31;68.34
41334;BME280;27078;46.428;6.256;2024-03-02T06:30:42;95337.88;;;4.37;68.09
41334;BME280;27078;46.428;6.256;2024-03-02T06:33:09;95332.03;;;4.44;68.23
41334;BME280;27078;46.428;6.256;2024-03-02T06:35:34;95332.94;;;4.39;68.61
41334;BME280;27078;46.428;6.256;2024-03-02T06:38:00;95337.53;;;4.44;69.20
41334;BME280;27078;46.428;6.256;2024-03-02T06:40:25;95333.59;;;4.50;68.27
41334;BME280;27078;46.428;6.256;2024-03-02T06:42:51;95334.03;;;4.57;67.91
41334;BME280;27078;46.428;6.256;2024-03-02T06:45:16;95340.50;;;4.66;68.08
41334;BME280;27078;46.428;6.256;2024-03-02T06:47:41;95335.31;;;4.79;67.68
41334;BME280;27078;46.428;6.256;2024-03-02T06:50:07;95342.59;;;4.88;67.16
41334;BME280;27078;46.428;6.256;2024-03-02T06:52:33;95342.72;;;4.97;68.06
41334;BME280;27078;46.428;6.256;2024-03-02T06:54:58;95345.91;;;5.04;67.57
41334;BME280;27078;46.428;6.256;2024-03-02T06:57:23;95344.72;;;5.10;66.88
41334;BME280;27078;46.428;6.256;2024-03-02T06:59:50;95339.63;;;5.17;67.26
41334;BME280;27078;46.428;6.256;2024-03-02T07:02:16;95339.25;;;5.24;67.16
41334;BME280;27078;46.428;6.256;2024-03-02T07:04:42;95343.97;;;5.37;65.73
41334;BME280;27078;46.428;6.256;2024-03-02T07:07:07;95338.16;;;5.53;66.17
41334;BME280;27078;46.428;6.256;2024-03-02T07:09:32;95343.16;;;5.64;67.47
41334;BME280;27078;46.428;6.256;2024-03-02T07:11:58;95337.97;;;5.77;65.12
41334;BME280;27078;46.428;6.256;2024-03-02T07:14:23;95330.53;;;5.91;65.41
41334;BME280;27078;46.428;6.256;2024-03-02T07:17:08;95327.47;;;6.06;63.25
41334;BME280;27078;46.428;6.256;2024-03-02T07:19:35;95318.91;;;6.22;63.80
41334;BME280;27078;46.428;6.256;2024-03-02T07:22:00;95319.75;;;6.31;62.86
41334;BME280;27078;46.428;6.256;2024-03-02T07:24:25;95306.28;;;6.43;62.60
41334;BME280;27078;46.428;6.256;2024-03-02T07:26:50;95308.78;;;6.53;64.36
41334;BME280;27078;46.428;6.256;2024-03-02T07:29:16;95309.88;;;6.66;62.79
41334;BME280;27078;46.428;6.256;2024-03-02T07:31:42;95303.31;;;6.76;61.88
41334;BME280;27078;46.428;6.256;2024-03-02T07:34:07;95296.72;;;6.85;61.21
41334;BME280;27078;46.428;6.256;2024-03-02T07:36:32;95298.09;;;6.97;63.03
41334;BME280;27078;46.428;6.256;2024-03-02T07:38:58;95301.09;;;7.09;64.19
41334;BME280;27078;46.428;6.256;2024-03-02T07:41:23;95295.31;;;7.19;62.40
41334;BME280;27078;46.428;6.256;2024-03-02T07:43:49;95289.66;;;7.24;61.19
41334;BME280;27078;46.428;6.256;2024-03-02T07:46:14;95282.50;;;7.23;60.07
41334;BME280;27078;46.428;6.256;2024-03-02T07:48:39;95290.66;;;7.28;62.30
41334;BME280;27078;46.428;6.256;2024-03-02T07:51:05;95284.66;;;7.35;63.93
41334;BME280;27078;46.428;6.256;2024-03-02T07:53:30;95276.91;;;7.37;62.06
41334;BME280;27078;46.428;6.256;2024-03-02T07:55:56;95276.28;;;7.40;64.09
41334;BME280;27078;46.428;6.256;2024-03-02T07:58:26;95277.41;;;7.39;63.53
41334;BME280;27078;46.428;6.256;2024-03-02T08:00:52;95268.63;;;7.37;64.12
41334;BME280;27078;46.428;6.256;2024-03-02T08:03:17;95271.50;;;7.32;64.48
41334;BME280;27078;46.428;6.256;2024-03-02T08:05:44;95274.25;;;7.32;62.85
41334;BME280;27078;46.428;6.256;2024-03-02T08:08:09;95277.19;;;7.27;64.23
41334;BME280;27078;46.428;6.256;2024-03-02T08:10:35;95272.28;;;7.24;65.58
41334;BME280;27078;46.428;6.256;2024-03-02T08:13:01;95273.53;;;7.18;63.67
41334;BME280;27078;46.428;6.256;2024-03-02T08:15:26;95268.22;;;7.21;65.23
41334;BME280;27078;46.428;6.256;2024-03-02T08:17:52;95269.34;;;7.20;64.86
41334;BME280;27078;46.428;6.256;2024-03-02T08:20:19;95269.28;;;7.12;62.71
41334;BME280;27078;46.428;6.256;2024-03-02T08:22:44;95270.56;;;7.05;62.82
41334;BME280;27078;46.428;6.256;2024-03-02T08:25:10;95267.81;;;7.05;61.77
41334;BME280;27078;46.428;6.256;2024-03-02T08:27:36;95277.75;;;7.15;61.70
41334;BME280;27078;46.428;6.256;2024-03-02T08:30:02;95276.19;;;7.23;62.29
41334;BME280;27078;46.428;6.256;2024-03-02T08:32:31;95274.25;;;7.32;62.85
41334;BME280;27078;46.428;6.256;2024-03-02T08:34:56;95271.38;;;7.37;62.29
41334;BME280;27078;46.428;6.256;2024-03-02T08:37:22;95264.38;;;7.31;61.12
41334;BME280;27078;46.428;6.256;2024-03-02T08:39:47;95268.16;;;7.44;61.42
41334;BME280;27078;46.428;6.256;2024-03-02T08:42:12;95269.31;;;7.51;62.20
41334;BME280;27078;46.428;6.256;2024-03-02T08:44:38;95267.91;;;7.63;62.91
41334;BME280;27078;46.428;6.256;2024-03-02T08:47:03;95260.47;;;7.72;62.80
41334;BME280;27078;46.428;6.256;2024-03-02T08:49:29;95252.69;;;7.74;62.02
41334;BME280;27078;46.428;6.256;2024-03-02T08:51:54;95250.78;;;7.83;61.59
41334;BME280;27078;46.428;6.256;2024-03-02T08:54:23;95253.22;;;7.93;62.24
41334;BME280;27078;46.428;6.256;2024-03-02T08:56:49;95251.63;;;8.01;62.22
41334;BME280;27078;46.428;6.256;2024-03-02T08:59:15;95250.16;;;8.03;61.81
41334;BME280;27078;46.428;6.256;2024-03-02T09:01:40;95260.72;;;8.19;63.50
41334;BME280;27078;46.428;6.256;2024-03-02T09:04:07;95250.66;;;8.23;62.67
41334;BME280;27078;46.428;6.256;2024-03-02T09:06:34;95243.69;;;8.34;63.12
41334;BME280;27078;46.428;6.256;2024-03-02T09:08:59;95242.41;;;8.40;62.60
41334;BME280;27078;46.428;6.256;2024-03-02T09:11:25;95235.75;;;8.41;62.25
41334;BME280;27078;46.428;6.256;2024-03-02T09:13:51;95237.53;;;8.46;62.59
41334;BME280;27078;46.428;6.256;2024-03-02T09:16:16;95238.66;;;8.54;61.75
41334;BME280;27078;46.428;6.256;2024-03-02T09:18:42;95233.28;;;8.66;62.74
41334;BME280;27078;46.428;6.256;2024-03-02T09:21:07;95234.09;;;8.75;62.96
41334;BME280;27078;46.428;6.256;2024-03-02T09:23:33;95224.66;;;8.85;61.72
41334;BME280;27078;46.428;6.256;2024-03-02T09:25:59;95224.47;;;8.98;62.62
41334;BME280;27078;46.428;6.256;2024-03-02T09:28:25;95227.34;;;9.11;61.81
41334;BME280;27078;46.428;6.256;2024-03-02T09:30:50;95220.50;;;9.17;60.38
41334;BME280;27078;46.428;6.256;2024-03-02T09:33:15;95224.06;;;9.26;62.37
41334;BME280;27078;46.428;6.256;2024-03-02T09:35:41;95214.44;;;9.32;60.98
41334;BME280;27078;46.428;6.256;2024-03-02T09:38:06;95215.91;;;9.30;58.88
41334;BME280;27078;46.428;6.256;2024-03-02T09:40:32;95213.56;;;9.40;60.09
41334;BME280;27078;46.428;6.256;2024-03-02T09:42:57;95206.72;;;9.46;60.69
41334;BME280;27078;46.428;6.256;2024-03-02T09:45:24;95194.91;;;9.58;59.98
41334;BME280;27078;46.428;6.256;2024-03-02T09:47:50;95195.94;;;9.83;59.95
41334;BME280;27078;46.428;6.256;2024-03-02T09:50:16;95193.31;;;9.87;59.38
41334;BME280;27078;46.428;6.256;2024-03-02T09:52:48;95194.81;;;10.05;59.09
41334;BME280;27078;46.428;6.256;2024-03-02T09:55:15;95195.84;;;10.22;58.58
41334;BME280;27078;46.428;6.256;2024-03-02T09:57:43;95191.75;;;10.28;57.06
41334;BME280;27078;46.428;6.256;2024-03-02T10:00:09;95194.72;;;10.44;58.35
41334;BME280;27078;46.428;6.256;2024-03-02T10:02:39;95198.50;;;10.39;56.96
41334;BME280;27078;46.428;6.256;2024-03-02T10:05:06;95196.69;;;10.43;57.63
41334;BME280;27078;46.428;6.256;2024-03-02T10:07:31;95192.81;;;10.35;57.39
41334;BME280;27078;46.428;6.256;2024-03-02T10:09:57;95192.09;;;10.26;59.21
41334;BME280;27078;46.428;6.256;2024-03-02T10:12:22;95184.47;;;10.14;58.89
41334;BME280;27078;46.428;6.256;2024-03-02T10:14:48;95179.16;;;10.09;59.20
41334;BME280;27078;46.428;6.256;2024-03-02T10:17:18;95183.00;;;10.17;60.28
41334;BME280;27078;46.428;6.256;2024-03-02T10:19:43;95174.56;;;10.34;57.88
41334;BME280;27078;46.428;6.256;2024-03-02T10:22:10;95180.91;;;10.35;58.34
41334;BME280;27078;46.428;6.256;2024-03-02T10:24:40;95178.09;;;10.44;57.25
41334;BME280;27078;46.428;6.256;2024-03-02T10:27:26;95181.13;;;10.51;56.61
41334;BME280;27078;46.428;6.256;2024-03-02T10:29:52;95176.38;;;10.51;56.10
41334;BME280;27078;46.428;6.256;2024-03-02T10:32:17;95177.72;;;10.45;54.89
41334;BME280;27078;46.428;6.256;2024-03-02T10:34:45;95174.63;;;10.47;55.63
41334;BME280;27078;46.428;6.256;2024-03-02T10:37:11;95168.41;;;10.50;54.53
41334;BME280;27078;46.428;6.256;2024-03-02T10:39:37;95165.63;;;10.50;55.66
41334;BME280;27078;46.428;6.256;2024-03-02T10:42:05;95161.34;;;10.52;55.80
41334;BME280;27078;46.428;6.256;2024-03-02T10:44:31;95156.97;;;10.51;56.19
41334;BME280;27078;46.428;6.256;2024-03-02T10:47:00;95154.13;;;10.60;57.20
41334;BME280;27078;46.428;6.256;2024-03-02T10:49:29;95153.00;;;10.73;55.80
41334;BME280;27078;46.428;6.256;2024-03-02T10:51:54;95154.38;;;10.67;54.54
41334;BME280;27078;46.428;6.256;2024-03-02T10:54:20;95150.56;;;10.72;54.11
41334;BME280;27078;46.428;6.256;2024-03-02T10:56:53;95151.63;;;10.79;54.94
41334;BME280;27078;46.428;6.256;2024-03-02T10:59:34;95141.19;;;10.76;54.96
41334;BME280;27078;46.428;6.256;2024-03-02T11:02:02;95142.72;;;10.86;55.75
41334;BME280;27078;46.428;6.256;2024-03-02T11:04:29;95134.06;;;10.87;54.13
41334;BME280;27078;46.428;6.256;2024-03-02T11:07:08;95127.00;;;10.78;54.69
41334;BME280;27078;46.428;6.256;2024-03-02T11:09:38;95132.53;;;10.78;55.94
41334;BME280;27078;46.428;6.256;2024-03-02T11:12:48;95118.75;;;10.69;53.83
41334;BME280;27078;46.428;6.256;2024-03-02T11:15:18;95115.03;;;10.65;56.58
41334;BME280;27078;46.428;6.256;2024-03-02T11:17:47;95108.22;;;10.62;56.51
41334;BME280;27078;46.428;6.256;2024-03-02T11:20:13;95106.25;;;10.63;55.25
41334;BME280;27078;46.428;6.256;2024-03-02T11:22:40;95103.88;;;10.74;55.53
41334;BME280;27078;46.428;6.256;2024-03-02T11:25:22;95099.81;;;10.71;55.38
41334;BME280;27078;46.428;6.256;2024-03-02T11:33:10;95095.91;;;10.97;56.42
41334;BME280;27078;46.428;6.256;2024-03-02T11:35:36;95094.78;;;10.98;53.89
41334;BME280;27078;46.428;6.256;2024-03-02T11:38:02;95087.81;;;10.92;54.38
41334;BME280;27078;46.428;6.256;2024-03-02T11:40:28;95080.84;;;10.73;54.20
41334;BME280;27078;46.428;6.256;2024-03-02T11:42:54;95083.91;;;10.59;53.69
41334;BME280;27078;46.428;6.256;2024-03-02T11:45:24;95080.78;;;10.49;53.83
41334;BME280;27078;46.428;6.256;2024-03-02T11:47:58;95079.50;;;10.46;54.74
41334;BME280;27078;46.428;6.256;2024-03-02T11:50:34;95073.50;;;10.44;54.28
41334;BME280;27078;46.428;6.256;2024-03-02T11:53:07;95063.06;;;10.41;53.63
41334;BME280;27078;46.428;6.256;2024-03-02T11:55:38;95060.84;;;10.34;53.14
41334;BME280;27078;46.428;6.256;2024-03-02T11:58:04;95063.38;;;10.27;54.45
41334;BME280;27078;46.428;6.256;2024-03-02T12:00:30;95050.91;;;10.33;55.13
41334;BME280;27078;46.428;6.256;2024-03-02T12:03:04;95051.97;;;10.41;54.67
41334;BME280;27078;46.428;6.256;2024-03-02T12:05:32;95046.13;;;10.55;55.52
41334;BME280;27078;46.428;6.256;2024-03-02T12:08:03;95035.50;;;10.57;54.46
41334;BME280;27078;46.428;6.256;2024-03-02T12:10:29;95028.34;;;10.68;53.91
41334;BME280;27078;46.428;6.256;2024-03-02T12:12:58;95023.50;;;10.77;55.04
41334;BME280;27078;46.428;6.256;2024-03-02T12:15:25;95015.75;;;10.95;54.26
41334;BME280;27078;46.428;6.256;2024-03-02T12:17:59;94998.06;;;11.12;55.62
41334;BME280;27078;46.428;6.256;2024-03-02T12:20:27;94982.03;;;11.33;53.65
41334;BME280;27078;46.428;6.256;2024-03-02T12:22:55;94961.09;;;11.48;54.35
41334;BME280;27078;46.428;6.256;2024-03-02T12:25:21;94970.41;;;11.68;52.67
41334;BME280;27078;46.428;6.256;2024-03-02T12:27:49;94966.84;;;11.83;53.27
41334;BME280;27078;46.428;6.256;2024-03-02T12:30:18;94982.38;;;11.97;53.67
41334;BME280;27078;46.428;6.256;2024-03-02T12:32:45;94984.44;;;12.00;51.60
41334;BME280;27078;46.428;6.256;2024-03-02T12:35:11;94988.63;;;11.94;50.90
41334;BME280;27078;46.428;6.256;2024-03-02T12:37:50;94972.41;;;11.83;51.30
41334;BME280;27078;46.428;6.256;2024-03-02T12:40:17;94969.94;;;11.66;51.02
41334;BME280;27078;46.428;6.256;2024-03-02T12:42:46;94970.19;;;11.61;51.32
41334;BME280;27078;46.428;6.256;2024-03-02T12:45:12;94972.28;;;11.52;51.60
41334;BME280;27078;46.428;6.256;2024-03-02T12:47:39;94969.53;;;11.52;53.30
41334;BME280;27078;46.428;6.256;2024-03-02T12:50:05;94973.34;;;11.47;52.06
41334;BME280;27078;46.428;6.256;2024-03-02T12:52:31;94973.91;;;11.53;53.72
41334;BME280;27078;46.428;6.256;2024-03-02T12:55:01;94969.16;;;11.53;51.98
41334;BME280;27078;46.428;6.256;2024-03-02T12:57:29;94964.16;;;11.59;53.56
41334;BME280;27078;46.428;6.256;2024-03-02T13:00:04;94963.81;;;11.61;52.45
41334;BME280;27078;46.428;6.256;2024-03-02T13:02:36;94956.03;;;11.66;53.65
41334;BME280;27078;46.428;6.256;2024-03-02T13:05:02;94958.34;;;11.64;52.34
41334;BME280;27078;46.428;6.256;2024-03-02T13:07:28;94979.69;;;11.60;51.92
41334;BME280;27078;46.428;6.256;2024-03-02T13:09:55;94970.69;;;11.51;51.81
41334;BME280;27078;46.428;6.256;2024-03-02T13:12:22;94964.31;;;11.50;53.20